createdAt,value
2019-03-22T00:00:20.163Z,99.90
2019-03-22T00:02:48.963Z,99.90
2019-03-22T00:05:17.751Z,99.90
2019-03-22T00:07:48.536Z,99.90
2019-03-22T00:10:16.924Z,99.90
2019-03-22T00:12:45.800Z,99.90
2019-03-22T00:15:14.564Z,99.90
2019-03-22T00:17:43.359Z,99.90
2019-03-22T00:20:12.555Z,99.90
2019-03-22T00:22:41.083Z,99.90
2019-03-22T00:25:10.139Z,99.90
2019-03-22T00:27:38.595Z,99.90
2019-03-22T00:30:10.831Z,99.90
2019-03-22T00:32:39.586Z,99.90
2019-03-22T00:35:09.206Z,99.90
2019-03-22T00:37:37.798Z,99.90
2019-03-22T00:40:06.911Z,99.90
2019-03-22T00:42:35.787Z,99.90
2019-03-22T00:45:06.366Z,99.90
2019-03-22T00:47:34.822Z,99.90
2019-03-22T00:50:07.515Z,99.90
2019-03-22T00:52:37.243Z,99.90
2019-03-22T00:55:06.807Z,99.90
2019-03-22T00:57:35.276Z,99.90
2019-03-22T01:00:07.032Z,99.90
2019-03-22T01:02:35.478Z,99.90
2019-03-22T01:05:06.791Z,99.90
2019-03-22T01:07:35.684Z,99.90
2019-03-22T01:10:07.235Z,99.90
2019-03-22T01:12:35.754Z,99.90
2019-03-22T01:15:06.939Z,99.90
2019-03-22T01:17:35.463Z,99.90
2019-03-22T01:20:06.742Z,99.90
2019-03-22T01:22:35.199Z,99.90
2019-03-22T01:25:08.213Z,99.90
2019-03-22T01:27:40.773Z,99.90
2019-03-22T01:30:13.140Z,99.90
2019-03-22T01:32:42.790Z,99.90
2019-03-22T01:35:11.913Z,99.90
2019-03-22T01:37:40.378Z,99.90
2019-03-22T01:40:11.291Z,99.90
2019-03-22T01:42:39.816Z,99.90
2019-03-22T01:45:11.268Z,99.90
2019-03-22T01:47:40.008Z,99.90
2019-03-22T01:50:11.971Z,99.90
2019-03-22T01:52:47.558Z,99.90
2019-03-22T01:55:16.321Z,99.90
2019-03-22T01:57:52.942Z,99.90
2019-03-22T02:00:16.762Z,99.90
2019-03-22T02:02:45.555Z,99.90
2019-03-22T02:05:14.863Z,99.90
2019-03-22T02:07:43.314Z,99.90
2019-03-22T02:10:13.063Z,99.90
2019-03-22T02:12:41.583Z,99.90
2019-03-22T02:15:16.535Z,99.90
2019-03-22T02:17:45.135Z,99.90
2019-03-22T02:20:16.215Z,99.90
2019-03-22T02:22:50.963Z,99.90
2019-03-22T02:25:19.837Z,99.90
2019-03-22T02:27:48.297Z,99.90
2019-03-22T02:30:18.875Z,99.90
2019-03-22T02:32:47.759Z,99.90
2019-03-22T02:35:28.341Z,99.90
2019-03-22T02:37:47.185Z,99.90
2019-03-22T02:40:16.084Z,99.90
2019-03-22T02:42:44.966Z,99.90
2019-03-22T02:45:15.010Z,99.90
2019-03-22T02:47:43.889Z,99.90
2019-03-22T02:50:18.653Z,99.90
2019-03-22T02:52:45.280Z,99.90
2019-03-22T02:55:14.567Z,99.90
2019-03-22T02:57:43.372Z,99.90
2019-03-22T03:00:14.915Z,99.90
2019-03-22T03:02:43.707Z,99.90
2019-03-22T03:05:12.328Z,99.90
2019-03-22T03:07:41.081Z,99.90
2019-03-22T03:10:16.261Z,99.90
2019-03-22T03:12:51.830Z,99.90
2019-03-22T03:15:20.663Z,99.90
2019-03-22T03:17:49.458Z,99.90
2019-03-22T03:20:19.544Z,99.90
2019-03-22T03:22:48.009Z,99.90
2019-03-22T03:25:16.680Z,99.90
2019-03-22T03:27:45.563Z,99.90
2019-03-22T03:30:21.902Z,99.90
2019-03-22T03:32:51.674Z,99.90
2019-03-22T03:35:20.540Z,99.90
2019-03-22T03:37:49.454Z,99.90
2019-03-22T03:40:18.492Z,99.90
2019-03-22T03:42:46.967Z,99.90
2019-03-22T03:45:27.560Z,99.90
2019-03-22T03:47:56.040Z,99.90
2019-03-22T03:50:24.839Z,99.90
2019-03-22T03:53:00.353Z,99.90
2019-03-22T03:55:29.489Z,99.90
2019-03-22T03:57:58.184Z,99.90
2019-03-22T04:00:26.971Z,99.90
2019-03-22T04:02:55.870Z,99.90
2019-03-22T04:05:24.639Z,99.90
2019-03-22T04:07:53.464Z,99.90
2019-03-22T04:10:21.918Z,99.90
2019-03-22T04:12:50.398Z,99.90
2019-03-22T04:15:19.298Z,99.90
2019-03-22T04:17:48.183Z,99.90
2019-03-22T04:20:16.652Z,99.90
2019-03-22T04:22:45.212Z,99.90
2019-03-22T04:25:13.747Z,99.90
2019-03-22T04:27:42.301Z,99.90
2019-03-22T04:30:11.772Z,99.90
2019-03-22T04:32:40.248Z,99.90
2019-03-22T04:35:10.274Z,99.90
2019-03-22T04:37:38.743Z,99.90
2019-03-22T04:40:19.203Z,99.90
2019-03-22T04:43:06.511Z,99.90
2019-03-22T04:45:36.858Z,99.90
2019-03-22T04:48:13.960Z,99.90
2019-03-22T04:50:45.063Z,99.90
2019-03-22T04:53:21.659Z,99.90
2019-03-22T04:55:52.319Z,99.90
2019-03-22T04:58:22.835Z,99.90
2019-03-22T05:00:53.003Z,99.90
2019-03-22T05:03:23.979Z,99.90
2019-03-22T05:05:53.931Z,99.90
2019-03-22T05:08:25.362Z,99.90
2019-03-22T05:10:55.811Z,99.90
2019-03-22T05:13:28.797Z,99.90
2019-03-22T05:15:57.860Z,99.90
2019-03-22T05:18:29.066Z,99.90
2019-03-22T05:20:58.236Z,99.90
2019-03-22T05:23:28.515Z,99.90
2019-03-22T05:25:59.916Z,99.90
2019-03-22T05:28:30.692Z,99.90
2019-03-22T05:31:11.519Z,99.90
2019-03-22T05:33:43.378Z,99.90
2019-03-22T05:36:11.843Z,99.90
2019-03-22T05:38:40.783Z,99.90
2019-03-22T05:41:09.291Z,99.90
2019-03-22T05:43:37.766Z,99.90
2019-03-22T05:46:06.631Z,99.90
2019-03-22T05:48:35.099Z,99.90
2019-03-22T05:51:03.554Z,99.90
2019-03-22T05:53:32.032Z,99.90
2019-03-22T05:56:00.482Z,99.90
2019-03-22T05:58:29.265Z,99.90
2019-03-22T06:00:57.787Z,99.90
2019-03-22T06:03:26.544Z,99.90
2019-03-22T06:05:55.091Z,99.90
2019-03-22T06:08:23.551Z,99.90
2019-03-22T06:10:52.030Z,99.90
2019-03-22T06:13:20.563Z,99.90
2019-03-22T06:15:49.376Z,99.90
2019-03-22T06:18:17.831Z,99.90
2019-03-22T06:20:46.316Z,99.90
2019-03-22T06:23:14.843Z,99.90
2019-03-22T06:25:43.393Z,99.90
2019-03-22T06:28:12.110Z,99.90
2019-03-22T06:30:40.905Z,99.90
2019-03-22T06:33:09.359Z,99.90
2019-03-22T06:35:37.831Z,99.90
2019-03-22T06:38:06.574Z,99.90
2019-03-22T06:40:35.540Z,99.90
2019-03-22T06:43:04.363Z,99.90
2019-03-22T06:46:10.704Z,99.90
2019-03-22T06:48:39.610Z,99.90
2019-03-22T06:51:08.158Z,99.90
2019-03-22T06:53:36.692Z,99.90
2019-03-22T06:56:06.456Z,99.90
2019-03-22T06:58:35.190Z,99.90
2019-03-22T07:01:03.731Z,99.10
2019-03-22T07:03:32.576Z,99.60
2019-03-22T07:06:01.355Z,99.90
2019-03-22T07:08:29.812Z,98.80
2019-03-22T07:10:58.359Z,99.50
2019-03-22T07:13:26.815Z,99.90
2019-03-22T07:15:55.294Z,99.60
2019-03-22T07:18:24.091Z,95.70
2019-03-22T07:20:52.571Z,95.80
2019-03-22T07:23:21.377Z,95.80
2019-03-22T07:25:49.849Z,95.60
2019-03-22T07:28:18.379Z,97.30
2019-03-22T07:30:46.856Z,96.80
2019-03-22T07:33:15.723Z,94.90
2019-03-22T07:35:44.520Z,94.60
2019-03-22T07:38:13.311Z,92.10
2019-03-22T07:40:42.094Z,92.30
2019-03-22T07:43:10.560Z,94.70
2019-03-22T07:45:39.035Z,93.30
2019-03-22T07:48:07.770Z,92.60
2019-03-22T07:50:36.656Z,95.00
2019-03-22T07:53:05.558Z,93.10
2019-03-22T07:55:34.100Z,92.00
2019-03-22T07:58:02.937Z,89.80
2019-03-22T08:00:31.735Z,85.40
2019-03-22T08:03:00.265Z,86.00
2019-03-22T08:05:28.878Z,87.40
2019-03-22T08:07:57.700Z,84.20
2019-03-22T08:10:26.591Z,72.90
2019-03-22T08:12:55.424Z,62.00
2019-03-22T08:15:26.631Z,75.30
2019-03-22T08:17:57.123Z,86.60
2019-03-22T08:20:25.313Z,86.60
2019-03-22T08:22:53.832Z,80.70
2019-03-22T08:25:22.295Z,78.30
2019-03-22T08:27:50.811Z,72.80
2019-03-22T08:30:19.310Z,78.40
2019-03-22T08:32:50.304Z,82.20
2019-03-22T08:35:18.235Z,87.40
2019-03-22T08:37:52.466Z,82.70
2019-03-22T08:40:16.977Z,78.40
2019-03-22T08:42:45.926Z,71.00
2019-03-22T08:45:14.682Z,65.40
2019-03-22T08:47:43.209Z,67.10
2019-03-22T08:50:11.823Z,65.60
2019-03-22T08:52:40.703Z,63.80
2019-03-22T08:55:09.577Z,63.10
2019-03-22T08:57:38.468Z,71.20
2019-03-22T09:00:12.650Z,68.60
2019-03-22T09:02:41.171Z,74.20
2019-03-22T09:05:11.267Z,75.30
2019-03-22T09:07:39.739Z,75.80
2019-03-22T09:10:12.868Z,77.30
2019-03-22T09:12:41.419Z,75.40
2019-03-22T09:15:12.149Z,73.50
2019-03-22T09:17:40.661Z,66.60
2019-03-22T09:20:10.650Z,56.10
2019-03-22T09:22:39.135Z,53.20
2019-03-22T09:25:08.079Z,56.30
2019-03-22T09:27:36.815Z,66.60
2019-03-22T09:30:11.511Z,61.40
2019-03-22T09:32:39.989Z,55.10
2019-03-22T09:35:10.010Z,56.30
2019-03-22T09:37:38.582Z,57.90
2019-03-22T09:40:08.582Z,61.00
2019-03-22T09:42:37.245Z,63.20
2019-03-22T09:45:07.515Z,59.70
2019-03-22T09:47:36.327Z,63.50
2019-03-22T09:50:09.963Z,61.40
2019-03-22T09:52:38.564Z,61.10
2019-03-22T09:55:13.650Z,61.60
2019-03-22T09:57:38.928Z,63.00
2019-03-22T10:00:11.084Z,61.60
2019-03-22T10:02:40.336Z,60.70
2019-03-22T10:05:11.699Z,57.20
2019-03-22T10:07:40.476Z,59.00
2019-03-22T10:10:09.683Z,60.10
2019-03-22T10:12:38.155Z,56.30
2019-03-22T10:15:07.251Z,56.80
2019-03-22T10:17:36.051Z,55.60
2019-03-22T10:20:05.948Z,56.30
2019-03-22T10:22:34.444Z,53.60
2019-03-22T10:25:03.519Z,49.10
2019-03-22T10:27:32.252Z,47.10
2019-03-22T10:30:00.785Z,52.20
2019-03-22T10:32:29.593Z,53.80
2019-03-22T10:34:58.161Z,50.70
2019-03-22T10:37:26.796Z,50.80
2019-03-22T10:39:55.742Z,53.30
2019-03-22T10:42:24.293Z,54.50
2019-03-22T10:44:52.939Z,53.00
2019-03-22T10:47:21.883Z,51.50
2019-03-22T10:49:50.421Z,52.00
2019-03-22T10:52:18.889Z,56.00
2019-03-22T10:54:47.440Z,54.10
2019-03-22T10:57:15.902Z,53.60
2019-03-22T10:59:44.377Z,50.40
2019-03-22T11:02:12.832Z,51.50
2019-03-22T11:04:41.317Z,50.20
2019-03-22T11:07:10.184Z,48.10
2019-03-22T11:09:39.067Z,52.40
2019-03-22T11:12:12.271Z,50.90
2019-03-22T11:14:38.399Z,47.20
2019-03-22T11:17:06.863Z,52.20
2019-03-22T11:19:35.334Z,52.40
2019-03-22T11:22:04.164Z,53.70
2019-03-22T11:24:32.645Z,50.20
2019-03-22T11:27:01.649Z,54.20
2019-03-22T11:29:30.123Z,48.20
2019-03-22T11:31:58.922Z,47.30
2019-03-22T11:34:27.669Z,43.30
2019-03-22T11:36:56.194Z,42.50
2019-03-22T11:39:24.679Z,46.60
2019-03-22T11:41:53.485Z,43.60
2019-03-22T11:44:22.034Z,40.40
2019-03-22T11:46:50.563Z,39.70
2019-03-22T11:49:19.043Z,44.00
2019-03-22T11:51:47.502Z,45.30
2019-03-22T11:54:15.962Z,41.20
2019-03-22T11:56:44.418Z,39.30
2019-03-22T11:59:12.892Z,40.70
2019-03-22T12:01:41.350Z,41.10
2019-03-22T12:04:11.836Z,38.60
2019-03-22T12:06:40.067Z,36.90
2019-03-22T12:28:51.943Z,38.40
2019-03-22T12:31:20.847Z,38.10
2019-03-22T12:33:49.632Z,39.40
2019-03-22T12:36:18.107Z,38.30
2019-03-22T12:38:46.559Z,39.00
2019-03-22T12:41:15.032Z,42.40
2019-03-22T12:43:43.775Z,41.00
2019-03-22T12:46:12.249Z,39.70
2019-03-22T12:48:40.781Z,36.10
2019-03-22T12:51:09.319Z,35.50
2019-03-22T12:53:38.135Z,33.10
2019-03-22T12:56:06.867Z,32.80
2019-03-22T12:58:35.583Z,34.40
2019-03-22T13:01:04.391Z,37.40
2019-03-22T13:03:32.843Z,37.30
2019-03-22T13:06:01.588Z,35.70
2019-03-22T13:08:30.110Z,37.60
2019-03-22T13:10:58.578Z,44.90
2019-03-22T13:13:27.351Z,41.20
2019-03-22T13:15:55.823Z,37.40
2019-03-22T13:18:24.277Z,38.70
2019-03-22T13:20:53.008Z,39.40
2019-03-22T13:23:21.459Z,37.10
2019-03-22T13:25:49.928Z,36.90
2019-03-22T13:28:18.675Z,36.60
2019-03-22T13:30:47.469Z,38.00
2019-03-22T13:33:16.001Z,38.80
2019-03-22T13:35:44.842Z,39.50
2019-03-22T13:38:13.294Z,35.00
2019-03-22T13:40:41.766Z,33.20
2019-03-22T13:43:10.512Z,33.70
2019-03-22T13:45:38.978Z,34.20
2019-03-22T13:48:07.792Z,33.50
2019-03-22T13:50:36.583Z,32.60
2019-03-22T13:53:05.483Z,30.90
2019-03-22T13:55:34.367Z,31.60
2019-03-22T13:58:02.900Z,33.50
2019-03-22T14:00:31.404Z,32.50
2019-03-22T14:03:03.157Z,34.80
2019-03-22T14:05:30.766Z,37.80
2019-03-22T14:07:59.220Z,35.70
2019-03-22T14:10:33.166Z,37.30
2019-03-22T14:13:03.171Z,35.30
2019-03-22T14:15:31.622Z,37.60
2019-03-22T14:18:00.979Z,36.80
2019-03-22T14:20:30.475Z,39.10
2019-03-22T14:22:59.387Z,37.20
2019-03-22T14:25:28.279Z,33.90
2019-03-22T14:27:57.073Z,33.40
2019-03-22T14:30:25.782Z,35.80
2019-03-22T14:32:54.994Z,37.50
2019-03-22T14:35:23.878Z,37.30
2019-03-22T14:37:52.399Z,33.80
2019-03-22T14:40:20.861Z,33.30
2019-03-22T14:42:49.407Z,34.70
2019-03-22T14:45:18.195Z,38.00
2019-03-22T14:47:47.007Z,36.00
2019-03-22T14:50:15.600Z,33.60
2019-03-22T14:52:44.333Z,35.30
2019-03-22T14:55:13.039Z,36.00
2019-03-22T14:57:48.990Z,37.70
2019-03-22T15:00:13.583Z,36.60
2019-03-22T15:02:42.059Z,37.50
2019-03-22T15:05:11.523Z,37.00
2019-03-22T15:07:40.311Z,36.90
2019-03-22T15:10:10.706Z,38.90
2019-03-22T15:12:39.539Z,37.20
2019-03-22T15:15:11.538Z,37.60
2019-03-22T15:17:56.883Z,34.50
2019-03-22T15:20:43.626Z,33.60
2019-03-22T15:23:16.386Z,33.80
2019-03-22T15:25:46.483Z,33.30
2019-03-22T15:28:16.907Z,36.20
2019-03-22T15:31:03.539Z,35.90
2019-03-22T15:33:34.647Z,37.50
2019-03-22T15:38:45.629Z,36.40
2019-03-22T15:41:14.443Z,38.80
2019-03-22T15:43:43.238Z,35.90
2019-03-22T15:46:12.136Z,36.40
2019-03-22T15:48:40.923Z,36.90
2019-03-22T15:51:09.373Z,37.10
2019-03-22T15:53:37.838Z,36.40
2019-03-22T15:56:06.587Z,36.30
2019-03-22T15:58:36.283Z,37.70
2019-03-22T16:01:05.520Z,38.20
2019-03-22T16:03:43.863Z,39.20
2019-03-22T16:06:23.574Z,38.40
2019-03-22T16:08:52.346Z,39.00
2019-03-22T16:11:20.799Z,38.40
2019-03-22T16:13:49.273Z,37.90
2019-03-22T16:16:17.723Z,40.40
2019-03-22T16:18:46.491Z,40.90
2019-03-22T16:21:15.287Z,40.10
2019-03-22T16:23:43.767Z,42.00
2019-03-22T16:26:12.220Z,44.00
2019-03-22T16:28:40.691Z,47.40
2019-03-22T16:31:09.435Z,50.00
2019-03-22T16:33:38.159Z,50.50
2019-03-22T16:36:06.615Z,52.80
2019-03-22T16:38:35.092Z,54.20
2019-03-22T16:41:03.546Z,55.20
2019-03-22T16:43:32.383Z,56.10
2019-03-22T16:46:01.096Z,55.80
2019-03-22T16:48:29.963Z,53.50
2019-03-22T16:50:58.757Z,56.50
2019-03-22T16:53:27.284Z,58.80
2019-03-22T16:55:56.035Z,61.70
2019-03-22T16:58:24.828Z,62.30
2019-03-22T17:00:53.303Z,66.10
2019-03-22T17:03:21.828Z,66.00
2019-03-22T17:05:50.606Z,66.80
2019-03-22T17:08:19.190Z,67.20
2019-03-22T17:10:47.672Z,69.20
2019-03-22T17:13:16.132Z,70.00
2019-03-22T17:15:44.598Z,71.10
2019-03-22T17:18:13.056Z,72.00
2019-03-22T17:20:41.535Z,73.60
2019-03-22T17:23:09.995Z,74.90
2019-03-22T17:25:38.782Z,75.70
2019-03-22T17:28:07.234Z,76.80
2019-03-22T17:30:35.706Z,78.30
2019-03-22T17:33:04.233Z,79.20
2019-03-22T17:35:33.040Z,80.70
2019-03-22T17:38:01.566Z,81.90
2019-03-22T17:40:30.039Z,83.00
2019-03-22T17:42:58.799Z,83.60
2019-03-22T17:45:27.275Z,84.00
2019-03-22T17:47:56.079Z,84.90
2019-03-22T17:50:24.872Z,85.90
2019-03-22T17:52:53.663Z,86.20
2019-03-22T17:55:22.463Z,88.20
2019-03-22T17:57:51.362Z,89.10
2019-03-22T18:00:21.615Z,88.60
2019-03-22T18:02:50.075Z,88.90
2019-03-22T18:05:18.802Z,90.40
2019-03-22T18:07:47.263Z,90.40
2019-03-22T18:10:16.031Z,90.40
2019-03-22T18:12:44.486Z,90.90
2019-03-22T18:15:16.035Z,91.00
2019-03-22T18:17:44.495Z,91.50
2019-03-22T18:20:15.502Z,91.80
2019-03-22T18:22:44.291Z,91.70
2019-03-22T18:25:15.701Z,92.30
2019-03-22T18:27:44.006Z,92.40
2019-03-22T18:30:17.530Z,92.60
2019-03-22T18:32:46.351Z,92.60
2019-03-22T18:35:14.895Z,93.10
2019-03-22T18:37:43.344Z,93.80
2019-03-22T18:40:15.992Z,93.60
2019-03-22T18:42:44.770Z,93.70
2019-03-22T18:45:14.171Z,93.70
2019-03-22T18:47:43.484Z,93.90
2019-03-22T18:50:13.278Z,94.30
2019-03-22T18:52:41.813Z,94.70
2019-03-22T18:55:10.708Z,94.90
2019-03-22T18:57:39.471Z,94.80
2019-03-22T19:00:13.887Z,94.90
2019-03-22T19:02:42.687Z,95.10
2019-03-22T19:05:11.579Z,95.10
2019-03-22T19:07:43.027Z,95.50
2019-03-22T19:10:13.370Z,95.90
2019-03-22T19:12:41.830Z,96.00
2019-03-22T19:15:12.283Z,96.30
2019-03-22T19:17:41.022Z,96.80
2019-03-22T19:20:11.555Z,96.80
2019-03-22T19:22:40.398Z,97.10
2019-03-22T19:25:09.702Z,96.90
2019-03-22T19:27:38.497Z,96.70
2019-03-22T19:30:12.587Z,96.90
2019-03-22T19:32:41.119Z,97.10
2019-03-22T19:35:09.814Z,96.50
2019-03-22T19:37:38.288Z,97.70
2019-03-22T19:40:09.216Z,98.10
2019-03-22T19:42:38.003Z,97.70
2019-03-22T19:45:09.375Z,97.80
2019-03-22T19:47:39.383Z,97.80
2019-03-22T19:50:10.075Z,98.10
2019-03-22T19:52:38.906Z,98.40
2019-03-22T19:55:09.094Z,98.20
2019-03-22T19:57:38.038Z,98.30
2019-03-22T20:00:19.675Z,98.60
2019-03-22T20:02:49.276Z,98.90
2019-03-22T20:05:33.970Z,98.90
2019-03-22T20:08:04.104Z,99.10
2019-03-22T20:10:32.555Z,99.20
2019-03-22T20:13:01.385Z,98.80
2019-03-22T20:15:30.167Z,99.30
2019-03-22T20:17:58.967Z,99.50
2019-03-22T20:20:27.466Z,99.50
2019-03-22T20:22:56.250Z,99.40
2019-03-22T20:25:25.147Z,99.90
2019-03-22T20:27:54.035Z,99.90
2019-03-22T20:30:22.559Z,99.90
2019-03-22T20:32:51.029Z,99.90
2019-03-22T20:35:19.491Z,99.90
2019-03-22T20:37:48.045Z,99.90
2019-03-22T20:40:18.207Z,99.90
2019-03-22T20:42:47.312Z,99.90
2019-03-22T20:45:24.068Z,99.90
2019-03-22T20:47:47.245Z,99.90
2019-03-22T20:50:15.707Z,99.90
2019-03-22T20:52:44.523Z,99.90
2019-03-22T20:55:13.427Z,99.90
2019-03-22T20:57:41.943Z,99.90
2019-03-22T21:00:16.427Z,99.90
2019-03-22T21:02:44.879Z,99.90
2019-03-22T21:05:13.692Z,99.90
2019-03-22T21:07:42.450Z,99.90
2019-03-22T21:10:11.021Z,99.90
2019-03-22T21:12:39.519Z,99.90
2019-03-22T21:15:12.255Z,99.90
2019-03-22T21:17:40.720Z,99.90
2019-03-22T21:20:10.675Z,99.90
2019-03-22T21:22:39.556Z,99.90
2019-03-22T21:25:09.628Z,99.90
2019-03-22T21:27:38.371Z,99.90
2019-03-22T21:30:12.796Z,99.90
2019-03-22T21:32:45.382Z,99.90
2019-03-22T21:35:22.037Z,99.90
2019-03-22T21:37:57.383Z,99.90
2019-03-22T21:40:25.855Z,99.90
2019-03-22T21:42:54.321Z,99.90
2019-03-22T21:45:23.152Z,99.90
2019-03-22T21:47:51.611Z,99.90
2019-03-22T21:50:20.424Z,99.90
2019-03-22T21:52:49.319Z,99.90
2019-03-22T21:55:17.791Z,99.90
2019-03-22T21:57:46.243Z,99.90
2019-03-22T22:00:16.055Z,99.90
2019-03-22T22:02:44.799Z,99.90
2019-03-22T22:05:13.271Z,99.90
2019-03-22T22:07:41.723Z,99.90
2019-03-22T22:10:10.832Z,99.90
2019-03-22T22:12:39.278Z,99.90
2019-03-22T22:15:12.349Z,99.90
2019-03-22T22:17:41.253Z,99.90
2019-03-22T22:20:10.920Z,99.90
2019-03-22T22:22:39.450Z,99.90
2019-03-22T22:25:08.867Z,99.90
2019-03-22T22:27:37.319Z,99.90
2019-03-22T22:30:08.133Z,99.90
2019-03-22T22:32:36.865Z,99.90
2019-03-22T22:35:07.375Z,99.90
2019-03-22T22:37:36.935Z,99.90
2019-03-22T22:40:10.268Z,99.90
2019-03-22T22:42:38.795Z,99.90
2019-03-22T22:45:09.623Z,99.90
2019-03-22T22:47:38.074Z,99.90
2019-03-22T22:50:10.902Z,99.90
2019-03-22T22:52:39.433Z,99.90
2019-03-22T22:55:09.214Z,99.90
2019-03-22T22:57:37.991Z,99.90
2019-03-22T23:00:11.899Z,99.90
2019-03-22T23:02:40.375Z,99.90
2019-03-22T23:05:08.834Z,99.90
2019-03-22T23:07:37.667Z,99.90
2019-03-22T23:10:07.531Z,99.90
2019-03-22T23:12:36.477Z,99.90
2019-03-22T23:15:09.271Z,99.90
2019-03-22T23:17:39.038Z,99.90
2019-03-22T23:20:09.406Z,99.90
2019-03-22T23:22:37.880Z,99.90
2019-03-22T23:25:07.475Z,99.90
2019-03-22T23:27:36.865Z,99.90
2019-03-22T23:30:07.339Z,99.90
2019-03-22T23:32:35.811Z,99.90
2019-03-22T23:35:05.964Z,99.90
2019-03-22T23:37:34.745Z,99.90
2019-03-22T23:40:04.215Z,99.90
2019-03-22T23:42:32.682Z,99.90
2019-03-22T23:45:01.435Z,99.90
2019-03-22T23:47:29.983Z,99.90
2019-03-22T23:49:58.440Z,99.90
2019-03-22T23:52:26.914Z,99.90
2019-03-22T23:54:55.441Z,99.90
2019-03-22T23:57:24.371Z,99.90
2019-03-22T23:59:52.827Z,99.90
